SBFL/FLN METAR and TAF weather

Enter ICAO airport designator
Station Type Date Time Source
SBFL METAR 2020/01/29 03:00 UTC NOAA

SBFL 290300Z VRB02KT 9999 SCT020 BKN070 24/23 Q1012


Station Type Date Time Source
SBFL Decoded METAR 2020/01/29 03:00 UTC NOAA

Florianopolis Aeroporto , Brazil (SBFL) 27-40S 048-33W 5M
Jan 28, 2020 - 10:00 PM EST / 2020.01.29 0300 UTC
Wind: Variable at 2 MPH (2 KT):0
Visibility: greater than 7 mile(s):0
Sky conditions: mostly cloudy
Temperature: 75 F (24 C)
Dew Point: 73 F (23 C)
Relative Humidity: 94%
Pressure (altimeter): 29.88 in. Hg (1012 hPa)
ob: SBFL 290300Z VRB02KT 9999 SCT020 BKN070 24/23 Q1012
cycle: 3

Station Type Date Time Source
SBFL TAF 2020/01/29 06:09 UTC NOAA

TAF SBFL 290300Z 2906/3006 34005KT 9999 SCT020 TN22/2908Z TX30/2917Z
BECMG 2912/2914 01010KT FEW040
BECMG 2923/3001 35005KT FEW025
RMK PER

Example: see airport list